Time;durP1;ratioP1;P1;durP2;ratioP2;P2;SDS_P1;SDS_P2;PMS_P1;PMS_P2;Temp;Humidity;BMP_temperature;BMP_pressure;BME280_temperature;BME280_humidity;BME280_pressure;Samples;Min_cycle;Max_cycle;Signal;HPM_P1;HPM_P2
2021/01/03 00:00:24;;;;;;;22.23;13.00;;;3.00;50.20;;;;;;5025054;28;40455;-87
2021/01/03 00:02:53;;;;;;;20.67;11.97;;;3.00;50.10;;;;;;5010454;28;37715;-85
2021/01/03 00:05:28;;;;;;;18.07;11.20;;;3.00;50.00;;;;;;5015418;28;38574;-86
2021/01/03 00:07:55;;;;;;;22.00;11.90;;;3.00;49.90;;;;;;5010441;28;38581;-86
2021/01/03 00:10:31;;;;;;;22.87;11.73;;;2.90;49.80;;;;;;5031965;28;40265;-86
2021/01/03 00:13:04;;;;;;;20.20;11.70;;;2.90;49.90;;;;;;5022293;28;40582;-86
2021/01/03 00:15:31;;;;;;;17.93;11.00;;;2.90;50.00;;;;;;5027923;28;39106;-85
2021/01/03 00:18:01;;;;;;;17.63;11.97;;;2.90;49.90;;;;;;5027496;28;37547;-87
2021/01/03 00:20:38;;;;;;;18.47;12.03;;;2.90;49.90;;;;;;5018266;28;39662;-85
2021/01/03 00:23:07;;;;;;;20.80;12.57;;;3.00;50.00;;;;;;5014947;28;39139;-86
2021/01/03 00:25:37;;;;;;;19.03;11.70;;;3.00;50.20;;;;;;5000518;28;37234;-87
2021/01/03 00:28:05;;;;;;;19.07;11.60;;;3.00;50.20;;;;;;5020987;28;37681;-86
2021/01/03 00:30:35;;;;;;;19.27;12.57;;;3.00;50.20;;;;;;5041023;28;40207;-86
2021/01/03 00:33:02;;;;;;;23.13;13.40;;;3.00;50.20;;;;;;5013190;28;39697;-85
2021/01/03 00:35:35;;;;;;;19.10;13.03;;;2.90;50.40;;;;;;5013513;28;38324;-86
2021/01/03 00:38:05;;;;;;;18.47;12.77;;;3.00;50.60;;;;;;5010183;28;37947;-86
2021/01/03 00:40:40;;;;;;;17.27;11.63;;;3.00;50.80;;;;;;4988109;28;39676;-87
2021/01/03 00:43:09;;;;;;;23.30;12.17;;;3.00;51.00;;;;;;5010031;28;37908;-88
2021/01/03 00:45:36;;;;;;;23.40;12.93;;;2.90;50.90;;;;;;4986380;28;36479;-87
2021/01/03 00:48:08;;;;;;;22.30;12.50;;;2.90;51.30;;;;;;5008696;28;37318;-86
2021/01/03 00:50:36;;;;;;;21.63;13.60;;;3.00;51.60;;;;;;4985644;28;38385;-85
2021/01/03 00:53:09;;;;;;;23.07;13.70;;;3.00;52.20;;;;;;5010363;28;39397;-86
2021/01/03 00:55:38;;;;;;;19.97;12.30;;;2.90;52.30;;;;;;5017851;28;37629;-86
2021/01/03 00:58:05;;;;;;;18.40;11.50;;;2.90;52.60;;;;;;5014566;28;37546;-86
2021/01/03 01:00:36;;;;;;;17.10;12.63;;;2.90;52.90;;;;;;4984405;28;39156;-87
2021/01/03 01:03:05;;;;;;;18.70;11.90;;;2.90;53.30;;;;;;5017666;28;38944;-86
2021/01/03 01:05:35;;;;;;;18.97;12.23;;;2.90;53.40;;;;;;5002336;28;36571;-87
2021/01/03 01:08:02;;;;;;;18.83;12.77;;;2.90;53.50;;;;;;5003157;28;36946;-85
2021/01/03 01:10:31;;;;;;;19.83;13.03;;;2.80;53.40;;;;;;4995911;28;39606;-87
2021/01/03 01:13:05;;;;;;;20.07;12.67;;;2.80;53.90;;;;;;4995106;28;38615;-87
2021/01/03 01:15:34;;;;;;;17.90;12.80;;;2.80;53.90;;;;;;5022429;28;38347;-87
2021/01/03 01:18:05;;;;;;;20.63;12.63;;;2.80;54.10;;;;;;5021335;28;37995;-87
2021/01/03 01:20:34;;;;;;;18.67;12.40;;;2.80;54.50;;;;;;5015719;28;39794;-87
2021/01/03 01:23:02;;;;;;;18.40;10.90;;;2.80;54.80;;;;;;5003736;28;38024;-86
2021/01/03 01:25:42;;;;;;;;;;;;;;;;;;;;;
2021/01/03 01:28:17;;;;;;;19.93;12.40;;;2.80;55.30;;;;;;5007142;28;37719;-87
2021/01/03 01:30:44;;;;;;;18.67;12.53;;;2.80;55.20;;;;;;5009075;28;40185;-86
2021/01/03 01:33:15;;;;;;;16.83;11.77;;;2.80;55.30;;;;;;4988604;28;38648;-87
2021/01/03 01:35:46;;;;;;;18.40;12.50;;;2.70;55.30;;;;;;5022495;28;39572;-86
2021/01/03 01:38:16;;;;;;;20.97;13.27;;;2.80;55.50;;;;;;5010413;28;36918;-87
2021/01/03 01:40:44;;;;;;;16.47;11.70;;;2.70;55.60;;;;;;4994631;28;39311;-87
2021/01/03 01:43:14;;;;;;;18.60;12.27;;;2.70;56.00;;;;;;5001148;28;39594;-87
2021/01/03 01:45:44;;;;;;;19.40;12.50;;;2.70;56.10;;;;;;5041744;28;38074;-86
2021/01/03 01:48:15;;;;;;;18.53;12.73;;;2.60;56.40;;;;;;5010627;28;38731;-87
2021/01/03 01:50:52;;;;;;;19.87;12.17;;;2.60;56.50;;;;;;5012228;28;40387;-87
2021/01/03 01:53:24;;;;;;;20.47;13.43;;;2.60;56.80;;;;;;5000071;28;39135;-86
2021/01/03 01:56:01;;;;;;;17.70;12.20;;;2.60;57.10;;;;;;4988521;28;36989;-87
2021/01/03 01:58:39;;;;;;;20.50;12.50;;;2.60;57.40;;;;;;5005619;28;37592;-84
2021/01/03 02:01:18;;;;;;;15.97;11.60;;;2.50;57.50;;;;;;4998157;28;40391;-86
2021/01/03 02:04:00;;;;;;;17.03;12.63;;;2.50;57.70;;;;;;5000033;28;39860;-86
2021/01/03 02:06:39;;;;;;;20.43;13.00;;;2.50;58.10;;;;;;5009741;28;38750;-86
2021/01/03 02:09:13;;;;;;;21.60;13.03;;;2.50;58.60;;;;;;4992544;28;36542;-86
2021/01/03 02:11:42;;;;;;;20.20;12.73;;;2.50;58.80;;;;;;5001800;28;40363;-87
2021/01/03 02:14:13;;;;;;;19.73;13.63;;;2.50;58.80;;;;;;4990716;28;39099;-87
2021/01/03 02:16:40;;;;;;;18.93;11.63;;;2.50;59.00;;;;;;5003475;28;38811;-86
2021/01/03 02:19:23;;;;;;;20.20;12.00;;;2.50;59.10;;;;;;5011535;28;37344;-86
2021/01/03 02:21:57;;;;;;;18.37;11.43;;;2.50;59.30;;;;;;4986651;28;38161;-86
2021/01/03 02:24:31;;;;;;;19.70;12.40;;;2.50;59.50;;;;;;4990994;28;37958;-86
2021/01/03 02:27:05;;;;;;;21.20;12.70;;;2.50;59.40;;;;;;5014878;28;39153;-86
2021/01/03 02:29:33;;;;;;;18.60;12.40;;;2.40;59.70;;;;;;5007880;28;38314;-85
2021/01/03 02:32:02;;;;;;;18.07;13.17;;;2.40;60.40;;;;;;4994334;28;38333;-85
2021/01/03 02:34:33;;;;;;;21.20;13.87;;;2.40;60.50;;;;;;5012307;28;39884;-86
2021/01/03 02:37:03;;;;;;;17.10;12.77;;;2.40;60.50;;;;;;4996429;28;36643;-86
2021/01/03 02:39:45;;;;;;;20.60;11.83;;;2.40;61.20;;;;;;4986129;28;36932;-86
2021/01/03 02:42:16;;;;;;;19.70;12.67;;;2.40;60.50;;;;;;5007709;28;39654;-85
2021/01/03 02:44:46;;;;;;;19.57;12.67;;;2.40;60.20;;;;;;4990451;28;38797;-86
2021/01/03 02:47:25;;;;;;;18.83;12.70;;;2.30;60.40;;;;;;4977308;28;37701;-86
2021/01/03 02:49:52;;;;;;;20.87;12.80;;;2.30;60.40;;;;;;4999184;28;37413;-86
2021/01/03 02:52:23;;;;;;;17.70;11.73;;;2.20;60.40;;;;;;4998987;28;40074;-86
2021/01/03 02:54:52;;;;;;;21.53;12.97;;;2.20;60.60;;;;;;5005068;28;39303;-86
2021/01/03 02:57:20;;;;;;;19.57;12.63;;;2.30;60.70;;;;;;5003373;28;39441;-86
2021/01/03 02:59:47;;;;;;;19.73;12.93;;;2.30;60.50;;;;;;5001538;28;36316;-85
2021/01/03 03:02:14;;;;;;;18.03;13.20;;;2.20;60.80;;;;;;5002426;28;38783;-86
2021/01/03 03:04:41;;;;;;;20.67;13.27;;;2.20;61.20;;;;;;5010290;28;39947;-86
2021/01/03 03:07:08;;;;;;;20.13;12.60;;;2.20;61.50;;;;;;4994742;28;37213;-86
2021/01/03 03:09:40;;;;;;;19.17;13.07;;;2.20;61.70;;;;;;4998506;28;37443;-86
2021/01/03 03:12:11;;;;;;;20.53;13.27;;;2.20;61.80;;;;;;4993474;28;39493;-86
2021/01/03 03:14:39;;;;;;;18.77;12.30;;;2.10;62.00;;;;;;5013933;28;39277;-85
2021/01/03 03:17:08;;;;;;;20.33;12.83;;;2.10;62.30;;;;;;5013347;28;37877;-86
2021/01/03 03:19:35;;;;;;;18.90;12.87;;;2.10;62.30;;;;;;4996296;28;38072;-86
2021/01/03 03:22:02;;;;;;;17.90;12.10;;;2.10;62.40;;;;;;5005514;28;39356;-86
2021/01/03 03:24:30;;;;;;;19.90;11.60;;;2.10;62.30;;;;;;5008177;28;40164;-86
2021/01/03 03:27:01;;;;;;;18.40;11.63;;;2.10;62.50;;;;;;4987659;28;38738;-85
2021/01/03 03:29:28;;;;;;;18.50;12.50;;;2.10;62.60;;;;;;5009438;28;37562;-86
2021/01/03 03:31:57;;;;;;;21.10;12.37;;;2.00;62.50;;;;;;5001136;28;37976;-85
2021/01/03 03:34:26;;;;;;;21.63;12.40;;;2.00;62.60;;;;;;5007095;28;39298;-86
2021/01/03 03:36:54;;;;;;;19.33;12.93;;;2.00;62.50;;;;;;4984453;28;37494;-86
2021/01/03 03:39:22;;;;;;;19.67;13.30;;;2.00;62.10;;;;;;5010773;28;37579;-86
2021/01/03 03:41:54;;;;;;;19.37;12.90;;;2.10;62.40;;;;;;5024390;28;40546;-85
2021/01/03 03:44:22;;;;;;;18.30;12.10;;;2.00;62.60;;;;;;5005723;28;38747;-85
2021/01/03 03:46:53;;;;;;;16.70;11.20;;;2.00;62.80;;;;;;5014637;28;38415;-85
2021/01/03 03:49:21;;;;;;;19.37;12.53;;;2.00;62.70;;;;;;5024505;28;37631;-86
2021/01/03 03:51:52;;;;;;;23.30;11.77;;;2.10;62.90;;;;;;5011411;28;40158;-85
2021/01/03 03:54:19;;;;;;;20.57;12.70;;;2.00;62.80;;;;;;5014645;28;39251;-85
2021/01/03 03:56:50;;;;;;;18.60;12.10;;;2.00;62.50;;;;;;5019037;28;38987;-85
2021/01/03 03:59:17;;;;;;;20.93;12.10;;;2.10;62.90;;;;;;5013201;28;37870;-86
2021/01/03 04:01:44;;;;;;;19.87;12.90;;;2.10;62.80;;;;;;5018288;28;40328;-85
2021/01/03 04:04:12;;;;;;;18.77;11.60;;;2.10;63.00;;;;;;5029707;28;39205;-86
2021/01/03 04:06:40;;;;;;;20.87;12.60;;;2.10;63.00;;;;;;5035053;28;39013;-86
2021/01/03 04:09:07;;;;;;;20.37;13.07;;;2.10;63.10;;;;;;5027717;28;37918;-86
2021/01/03 04:11:38;;;;;;;16.07;10.73;;;2.10;62.90;;;;;;5029482;28;41096;-86
2021/01/03 04:14:05;;;;;;;18.27;11.67;;;2.10;62.90;;;;;;5004521;28;37645;-86
2021/01/03 04:16:31;;;;;;;16.87;11.33;;;2.20;62.90;;;;;;5016795;28;38135;-86
2021/01/03 04:18:58;;;;;;;21.53;11.53;;;2.20;62.90;;;;;;5013844;28;37236;-85
2021/01/03 04:21:28;;;;;;;20.80;12.13;;;2.20;62.60;;;;;;5012632;28;41335;-86
2021/01/03 04:23:56;;;;;;;18.37;11.53;;;2.10;62.60;;;;;;5006170;28;38756;-85
2021/01/03 04:26:23;;;;;;;19.27;10.80;;;2.10;62.60;;;;;;5011290;28;37524;-86
2021/01/03 04:28:50;;;;;;;16.63;11.10;;;2.10;62.10;;;;;;5003323;28;37387;-85
2021/01/03 04:31:18;;;;;;;20.10;11.40;;;2.10;62.10;;;;;;5013227;28;40399;-86
2021/01/03 04:33:46;;;;;;;22.63;13.07;;;2.10;62.10;;;;;;5006566;28;38426;-85
2021/01/03 04:36:14;;;;;;;17.07;10.60;;;2.00;63.00;;;;;;4997921;28;36968;-86
2021/01/03 04:38:42;;;;;;;20.37;12.33;;;2.00;63.00;;;;;;4986426;28;36159;-85
2021/01/03 04:41:12;;;;;;;17.70;12.30;;;2.00;62.40;;;;;;5013171;28;40338;-85
2021/01/03 04:43:39;;;;;;;17.00;10.90;;;2.00;62.30;;;;;;5008144;28;38783;-85
2021/01/03 04:46:12;;;;;;;17.73;10.93;;;2.00;62.40;;;;;;5007484;28;38668;-85
2021/01/03 04:48:40;;;;;;;16.73;11.30;;;2.00;62.40;;;;;;5011256;28;38331;-85
2021/01/03 04:51:25;;;;;;;20.50;12.60;;;2.00;62.30;;;;;;5003426;28;40138;-85
2021/01/03 04:53:58;;;;;;;18.33;11.30;;;2.10;62.30;;;;;;5012088;28;40007;-85
2021/01/03 04:56:36;;;;;;;22.20;11.80;;;2.10;62.60;;;;;;5003934;28;39186;-86
2021/01/03 04:59:12;;;;;;;19.30;12.30;;;2.10;62.40;;;;;;5023444;28;37966;-85
2021/01/03 05:02:14;;;;;;;18.57;11.93;;;2.10;62.30;;;;;;4999481;28;37934;-86
2021/01/03 05:04:53;;;;;;;18.43;12.13;;;2.10;62.10;;;;;;5015300;28;38431;-86
2021/01/03 05:07:29;;;;;;;18.50;11.90;;;2.10;61.90;;;;;;5022473;28;38759;-85
2021/01/03 05:10:12;;;;;;;19.00;11.93;;;2.00;61.70;;;;;;5009701;28;36934;-86
2021/01/03 05:12:57;;;;;;;17.07;12.17;;;2.00;61.90;;;;;;5008990;28;40570;-87
2021/01/03 05:15:27;;;;;;;17.67;11.47;;;2.10;61.80;;;;;;5010343;28;38397;-86
2021/01/03 05:17:56;;;;;;;19.43;13.07;;;2.00;61.90;;;;;;5002774;28;38645;-85
2021/01/03 05:20:24;;;;;;;20.33;12.60;;;2.00;62.30;;;;;;5003077;28;37581;-85
2021/01/03 05:22:51;;;;;;;21.73;14.03;;;2.00;62.20;;;;;;5017945;28;40778;-85
2021/01/03 05:25:21;;;;;;;20.87;12.90;;;2.00;61.90;;;;;;5023239;28;39355;-86
2021/01/03 05:28:04;;;;;;;21.03;12.63;;;2.00;62.00;;;;;;5012719;28;38307;-85
2021/01/03 05:30:32;;;;;;;18.80;12.13;;;2.00;62.00;;;;;;4998149;28;37372;-85
2021/01/03 05:33:11;;;;;;;17.93;12.30;;;2.00;61.70;;;;;;5013271;28;39736;-86
2021/01/03 05:35:40;;;;;;;21.17;12.83;;;2.00;61.50;;;;;;5010191;28;39768;-86
2021/01/03 05:38:09;;;;;;;19.73;11.80;;;2.00;61.50;;;;;;5014567;28;38150;-85
2021/01/03 05:40:39;;;;;;;20.73;12.93;;;2.00;61.60;;;;;;5005104;28;38192;-85
2021/01/03 05:43:20;;;;;;;21.13;12.93;;;2.00;61.30;;;;;;5015252;28;39567;-86
2021/01/03 05:46:06;;;;;;;23.53;13.63;;;2.00;61.50;;;;;;5018054;28;39135;-85
2021/01/03 05:48:38;;;;;;;20.07;13.63;;;2.00;61.60;;;;;;5020455;28;37592;-85
2021/01/03 05:51:10;;;;;;;18.60;12.43;;;2.00;61.80;;;;;;4996739;28;36935;-86
2021/01/03 05:53:37;;;;;;;18.70;12.57;;;2.00;61.90;;;;;;5006222;28;39683;-85
2021/01/03 05:56:20;;;;;;;18.37;12.50;;;2.00;61.60;;;;;;5011764;28;39377;-84
2021/01/03 05:58:54;;;;;;;18.73;13.27;;;2.00;61.80;;;;;;5000343;28;37967;-85
2021/01/03 06:01:26;;;;;;;20.17;12.90;;;2.00;61.70;;;;;;5009088;28;37966;-86
2021/01/03 06:04:04;;;;;;;18.83;12.10;;;2.00;61.90;;;;;;4994778;28;38572;-85
2021/01/03 06:06:57;;;;;;;20.93;13.17;;;2.10;61.60;;;;;;5010512;28;39116;-85
2021/01/03 06:09:38;;;;;;;19.93;12.90;;;2.10;61.40;;;;;;4974102;28;38427;-84
2021/01/03 06:12:09;;;;;;;19.77;13.73;;;2.10;60.80;;;;;;5008324;28;38227;-86
2021/01/03 06:14:37;;;;;;;19.63;13.20;;;2.10;60.80;;;;;;4995388;28;39002;-85
2021/01/03 06:17:17;;;;;;;20.20;13.17;;;2.00;60.80;;;;;;5011008;28;38382;-86
2021/01/03 06:19:48;;;;;;;19.73;12.07;;;2.00;60.90;;;;;;5000072;28;38332;-85
2021/01/03 06:22:35;;;;;;;22.73;14.67;;;2.00;61.00;;;;;;5009823;28;37301;-85
2021/01/03 06:25:05;;;;;;;19.33;12.70;;;2.00;61.10;;;;;;5010289;28;39621;-85
2021/01/03 06:27:34;;;;;;;21.33;13.43;;;2.00;61.00;;;;;;5010640;28;39063;-86
2021/01/03 06:30:07;;;;;;;21.77;14.33;;;2.00;60.70;;;;;;5005340;28;38585;-85
2021/01/03 06:33:03;;;;;;;19.73;13.87;;;2.00;60.80;;;;;;5009020;28;37617;-86
2021/01/03 06:35:41;;;;;;;19.70;12.83;;;2.00;60.80;;;;;;5018094;28;40658;-85
2021/01/03 06:38:14;;;;;;;20.70;12.90;;;2.00;60.90;;;;;;5022473;28;38241;-86
2021/01/03 06:40:47;;;;;;;19.00;12.33;;;2.00;60.60;;;;;;5036573;28;39099;-85
2021/01/03 06:43:35;;;;;;;19.27;12.93;;;2.00;60.80;;;;;;5012355;28;38336;-85
2021/01/03 06:46:27;;;;;;;20.87;12.87;;;2.00;60.70;;;;;;5006735;28;40657;-85
2021/01/03 06:49:26;;;;;;;21.97;13.00;;;2.00;60.60;;;;;;5007123;28;39865;-85
2021/01/03 06:52:26;;;;;;;20.83;12.87;;;2.00;60.70;;;;;;5004214;28;36444;-85
2021/01/03 06:55:18;;;;;;;21.03;13.67;;;2.00;60.20;;;;;;5001329;28;37252;-86
2021/01/03 06:58:19;;;;;;;20.10;12.17;;;2.00;60.20;;;;;;5015867;28;39707;-85
2021/01/03 07:00:51;;;;;;;21.10;12.47;;;2.00;60.20;;;;;;5010904;28;40070;-86
2021/01/03 07:03:22;;;;;;;18.73;11.67;;;2.00;60.20;;;;;;5006481;28;39038;-86
2021/01/03 07:05:50;;;;;;;18.87;11.60;;;2.00;60.20;;;;;;5011641;28;37389;-86
2021/01/03 07:08:19;;;;;;;17.07;11.20;;;2.00;60.20;;;;;;5003719;28;39546;-85
2021/01/03 07:10:46;;;;;;;18.30;12.50;;;2.00;60.20;;;;;;5018475;28;37735;-85
2021/01/03 07:13:40;;;;;;;19.47;11.77;;;2.00;60.20;;;;;;5021205;28;37986;-85
2021/01/03 07:16:48;;;;;;;20.43;13.10;;;2.00;60.20;;;;;;5013167;28;37419;-85
2021/01/03 07:19:25;;;;;;;19.30;12.40;;;2.10;60.30;;;;;;5013081;28;39764;-85
2021/01/03 07:21:52;;;;;;;17.87;12.50;;;2.00;59.80;;;;;;5004428;28;38916;-85
2021/01/03 07:24:27;;;;;;;18.50;12.77;;;2.00;60.10;;;;;;5004994;28;37299;-86
2021/01/03 07:27:33;;;;;;;18.73;11.87;;;2.00;60.20;;;;;;5001124;28;36957;-85
2021/01/03 07:30:32;;;;;;;20.40;12.80;;;2.00;60.20;;;;;;4983518;28;38365;-86
2021/01/03 07:33:11;;;;;;;20.53;12.23;;;2.10;60.00;;;;;;4995071;28;38360;-85
2021/01/03 07:35:42;;;;;;;20.67;13.03;;;2.10;59.80;;;;;;5003750;28;38827;-86
2021/01/03 07:38:28;;;;;;;19.90;12.80;;;2.00;60.00;;;;;;5014277;28;37053;-86
2021/01/03 07:41:04;;;;;;;18.10;11.77;;;2.10;60.20;;;;;;5019284;28;40938;-86
2021/01/03 07:43:55;;;;;;;17.93;12.30;;;2.10;59.90;;;;;;5018316;28;39868;-85
2021/01/03 07:46:48;;;;;;;19.50;12.53;;;2.20;60.00;;;;;;5007826;28;38680;-85
2021/01/03 07:49:36;;;;;;;17.77;12.30;;;2.30;59.90;;;;;;5012009;28;37353;-85
2021/01/03 07:52:35;;;;;;;17.83;11.70;;;2.30;59.70;;;;;;5016341;28;39873;-86
2021/01/03 07:55:02;;;;;;;17.70;11.10;;;2.30;59.50;;;;;;5002053;28;38609;-86
2021/01/03 07:57:29;;;;;;;17.60;11.70;;;2.40;59.50;;;;;;5019407;28;38708;-85
2021/01/03 07:59:59;;;;;;;15.97;11.10;;;2.40;59.30;;;;;;5011825;28;38044;-86
2021/01/03 08:02:29;;;;;;;17.03;11.37;;;2.40;59.20;;;;;;5019691;28;39769;-85
2021/01/03 08:04:59;;;;;;;18.20;12.03;;;2.40;58.90;;;;;;5020668;28;38627;-86
2021/01/03 08:07:27;;;;;;;18.47;11.53;;;2.40;58.80;;;;;;4994780;28;37153;-85
2021/01/03 08:10:05;;;;;;;21.07;12.83;;;2.40;58.70;;;;;;5005692;28;37335;-86
2021/01/03 08:12:36;;;;;;;18.43;12.47;;;2.40;58.60;;;;;;5013023;28;39597;-85
2021/01/03 08:15:10;;;;;;;18.00;11.10;;;2.40;58.70;;;;;;5007794;28;39209;-86
2021/01/03 08:17:41;;;;;;;19.47;12.67;;;2.50;58.80;;;;;;5022608;28;39033;-85
2021/01/03 08:20:15;;;;;;;15.33;10.60;;;2.50;58.80;;;;;;5012513;28;36097;-85
2021/01/03 08:22:43;;;;;;;16.50;11.63;;;2.50;58.90;;;;;;5007878;28;39686;-85
2021/01/03 08:25:16;;;;;;;14.87;10.80;;;2.60;58.50;;;;;;5020318;28;39227;-85
2021/01/03 08:27:49;;;;;;;18.33;11.50;;;2.50;58.30;;;;;;5009406;28;38598;-86
2021/01/03 08:30:20;;;;;;;18.20;12.40;;;2.50;58.40;;;;;;5012442;28;38007;-85
2021/01/03 08:32:47;;;;;;;16.27;11.27;;;2.50;58.00;;;;;;5015260;28;40343;-86
2021/01/03 08:35:26;;;;;;;18.40;12.47;;;2.50;57.70;;;;;;5017915;28;40293;-85
2021/01/03 08:37:58;;;;;;;15.83;10.93;;;2.50;57.70;;;;;;5031232;28;38522;-86
2021/01/03 08:40:28;;;;;;;16.10;11.20;;;2.60;58.00;;;;;;5009615;28;37592;-85
2021/01/03 08:42:59;;;;;;;16.37;11.07;;;2.60;58.60;;;;;;5008772;28;39385;-86
2021/01/03 08:45:30;;;;;;;17.00;11.70;;;2.70;58.10;;;;;;5011216;28;39085;-86
2021/01/03 08:48:01;;;;;;;16.43;11.87;;;2.60;58.00;;;;;;4996548;28;38606;-86
2021/01/03 08:50:31;;;;;;;17.27;11.17;;;2.70;58.10;;;;;;5010960;28;37760;-85
2021/01/03 08:53:01;;;;;;;18.70;11.37;;;2.80;58.10;;;;;;5017242;28;39946;-86
2021/01/03 08:55:32;;;;;;;13.20;10.43;;;2.90;58.10;;;;;;5011910;28;39038;-85
2021/01/03 08:58:01;;;;;;;16.90;11.67;;;2.90;57.70;;;;;;5010129;28;38144;-86
2021/01/03 09:00:34;;;;;;;16.43;12.07;;;3.00;57.70;;;;;;5014886;28;36722;-86
2021/01/03 09:03:02;;;;;;;16.87;11.37;;;3.10;57.30;;;;;;5026045;28;37858;-86
2021/01/03 09:05:34;;;;;;;17.20;11.90;;;3.00;56.90;;;;;;5035215;28;40133;-85
2021/01/03 09:08:04;;;;;;;15.33;11.20;;;3.00;57.00;;;;;;5012670;28;38515;-86
2021/01/03 09:10:42;;;;;;;15.00;10.70;;;3.00;56.90;;;;;;5011731;28;38223;-86
2021/01/03 09:13:27;;;;;;;17.07;11.37;;;3.00;56.90;;;;;;5016772;28;40480;-86
2021/01/03 09:16:30;;;;;;;16.10;10.83;;;3.00;56.90;;;;;;5005893;28;39637;-86
2021/01/03 09:19:07;;;;;;;16.70;11.63;;;3.00;56.90;;;;;;4993614;28;36594;-85
2021/01/03 09:21:34;;;;;;;15.97;11.50;;;3.00;56.90;;;;;;5003658;28;36703;-86
2021/01/03 09:24:06;;;;;;;14.77;10.73;;;3.00;56.60;;;;;;4992333;28;39803;-86
2021/01/03 09:26:40;;;;;;;16.77;11.70;;;3.10;56.50;;;;;;5005452;28;39611;-87
2021/01/03 09:29:15;;;;;;;16.90;10.67;;;3.10;56.60;;;;;;5015360;28;37458;-87
2021/01/03 09:32:01;;;;;;;17.20;12.33;;;3.10;56.40;;;;;;5007576;28;36078;-85
2021/01/03 09:34:50;;;;;;;15.20;12.23;;;3.20;56.50;;;;;;5000417;28;39540;-85
2021/01/03 09:37:33;;;;;;;21.43;11.43;;;3.20;56.20;;;;;;5013470;28;37881;-86
2021/01/03 09:40:31;;;;;;;16.13;10.80;;;3.20;56.10;;;;;;4986802;28;36783;-87
2021/01/03 09:43:15;;;;;;;16.70;11.93;;;3.30;56.00;;;;;;5006961;28;37161;-86
2021/01/03 09:45:56;;;;;;;14.90;10.93;;;3.30;55.80;;;;;;5014602;28;39795;-86
2021/01/03 09:48:29;;;;;;;18.60;12.10;;;3.30;55.60;;;;;;5006215;28;38930;-87
2021/01/03 09:51:23;;;;;;;16.50;11.73;;;3.40;55.80;;;;;;5008676;28;38073;-86
2021/01/03 09:54:11;;;;;;;23.03;12.40;;;3.40;55.30;;;;;;5002421;28;37352;-86
2021/01/03 09:56:45;;;;;;;16.17;11.53;;;3.50;55.50;;;;;;5004729;28;40662;-87
2021/01/03 09:59:16;;;;;;;16.27;11.97;;;3.50;55.10;;;;;;5007835;28;37388;-87
2021/01/03 10:01:45;;;;;;;19.53;12.23;;;3.60;55.10;;;;;;4991126;28;36016;-87
2021/01/03 10:04:17;;;;;;;15.60;11.33;;;3.60;55.00;;;;;;5013815;28;36285;-86
2021/01/03 10:06:46;;;;;;;17.80;11.60;;;3.70;54.80;;;;;;5007217;28;41188;-86
2021/01/03 10:09:30;;;;;;;14.87;11.00;;;3.80;54.60;;;;;;4991409;28;38069;-85
2021/01/03 10:11:59;;;;;;;17.40;11.87;;;3.90;55.30;;;;;;5001637;28;38870;-85
2021/01/03 10:14:31;;;;;;;17.93;11.73;;;3.90;54.40;;;;;;4992263;28;37704;-86
2021/01/03 10:17:13;;;;;;;17.70;11.60;;;4.00;54.40;;;;;;4989061;28;39572;-85
2021/01/03 10:19:41;;;;;;;17.07;11.57;;;4.00;54.10;;;;;;4989600;28;40239;-86
2021/01/03 10:22:28;;;;;;;14.10;11.10;;;4.10;53.80;;;;;;5000171;28;36717;-86
2021/01/03 10:24:56;;;;;;;16.13;11.40;;;4.10;54.10;;;;;;5005505;28;38111;-86
2021/01/03 10:27:24;;;;;;;16.70;12.07;;;4.20;53.70;;;;;;5009311;28;39680;-86
2021/01/03 10:29:53;;;;;;;17.93;12.00;;;4.30;53.80;;;;;;4994697;28;37876;-86
2021/01/03 10:32:21;;;;;;;17.47;12.30;;;4.40;53.40;;;;;;4992412;28;38412;-86
2021/01/03 10:34:48;;;;;;;17.80;11.70;;;4.50;53.30;;;;;;5005015;28;38276;-86
2021/01/03 10:37:18;;;;;;;15.00;10.80;;;4.60;53.30;;;;;;5013688;28;39492;-86
2021/01/03 10:39:47;;;;;;;16.87;12.60;;;4.70;52.30;;;;;;5005688;28;41323;-86
2021/01/03 10:42:17;;;;;;;16.93;11.50;;;4.80;52.30;;;;;;5002694;28;37906;-86
2021/01/03 10:44:45;;;;;;;16.03;10.90;;;4.90;51.80;;;;;;5010497;28;37280;-86
2021/01/03 10:47:14;;;;;;;16.47;11.43;;;4.90;51.70;;;;;;5006577;28;40991;-86
2021/01/03 10:49:41;;;;;;;17.47;11.60;;;5.00;51.70;;;;;;5011056;28;40004;-87
2021/01/03 10:52:08;;;;;;;15.10;10.80;;;5.10;51.60;;;;;;5014598;28;37725;-87
2021/01/03 10:54:35;;;;;;;13.90;10.70;;;5.10;51.20;;;;;;4996032;28;36523;-86
2021/01/03 10:57:03;;;;;;;14.47;10.60;;;5.00;50.70;;;;;;5007944;28;39519;-85
2021/01/03 10:59:31;;;;;;;14.90;11.30;;;5.10;50.80;;;;;;5003727;28;38744;-86
2021/01/03 11:01:59;;;;;;;12.37;10.10;;;5.20;50.60;;;;;;4991178;28;37918;-85
2021/01/03 11:04:29;;;;;;;16.37;10.73;;;5.30;50.40;;;;;;4969825;28;36520;-86
2021/01/03 11:06:57;;;;;;;15.40;10.70;;;5.30;50.00;;;;;;4987915;28;39881;-86
2021/01/03 11:09:29;;;;;;;14.53;10.17;;;5.30;49.90;;;;;;4998372;28;39164;-84
2021/01/03 11:12:00;;;;;;;14.37;10.67;;;5.30;49.90;;;;;;5016330;28;38533;-86
2021/01/03 11:14:27;;;;;;;15.13;10.50;;;5.30;50.20;;;;;;5007209;28;36678;-86
2021/01/03 11:16:58;;;;;;;15.37;10.97;;;5.40;49.90;;;;;;4982051;28;39418;-86
2021/01/03 11:19:25;;;;;;;14.60;10.53;;;5.50;50.10;;;;;;4986890;28;38303;-86
2021/01/03 11:21:56;;;;;;;15.40;10.87;;;5.60;49.70;;;;;;4991596;28;38666;-86
2021/01/03 11:24:25;;;;;;;13.00;9.83;;;5.70;49.30;;;;;;4994120;28;37569;-86
2021/01/03 11:26:53;;;;;;;15.90;11.63;;;5.70;48.80;;;;;;4989379;28;39782;-87
2021/01/03 11:29:26;;;;;;;16.00;11.43;;;5.80;49.00;;;;;;4970824;28;37966;-87
2021/01/03 11:32:04;;;;;;;14.30;10.53;;;5.90;49.00;;;;;;4999036;28;38407;-87
2021/01/03 11:34:33;;;;;;;15.97;10.40;;;6.10;48.50;;;;;;4987405;28;37392;-87
2021/01/03 11:37:02;;;;;;;13.77;10.40;;;6.10;48.20;;;;;;4998385;28;39638;-87
2021/01/03 11:39:32;;;;;;;13.87;10.17;;;6.10;47.80;;;;;;4995486;28;38708;-87
2021/01/03 11:42:05;;;;;;;15.80;10.37;;;6.10;47.90;;;;;;4977012;28;37138;-86
2021/01/03 11:44:49;;;;;;;14.87;11.20;;;6.10;47.70;;;;;;4969409;28;36602;-86
2021/01/03 11:47:21;;;;;;;14.93;11.43;;;6.00;47.70;;;;;;4976835;28;20556;-86
2021/01/03 11:49:57;;;;;;;13.30;9.97;;;6.00;48.10;;;;;;4967867;28;38270;-86
2021/01/03 11:52:27;;;;;;;15.00;10.80;;;6.00;47.70;;;;;;4981527;28;38078;-85
2021/01/03 11:54:57;;;;;;;14.03;10.57;;;5.90;47.90;;;;;;4964446;28;36135;-85
2021/01/03 11:57:27;;;;;;;16.40;10.93;;;5.80;47.80;;;;;;5009254;28;39717;-85
2021/01/03 11:59:54;;;;;;;15.67;11.17;;;5.70;48.00;;;;;;4998348;28;39717;-85
2021/01/03 12:02:22;;;;;;;16.07;11.57;;;5.60;48.10;;;;;;4994461;28;36606;-84
2021/01/03 12:04:51;;;;;;;12.33;9.50;;;5.60;48.40;;;;;;5010357;28;37343;-85
2021/01/03 12:07:22;;;;;;;13.93;10.40;;;5.50;48.60;;;;;;5012701;28;39775;-85
2021/01/03 12:09:49;;;;;;;15.33;10.37;;;5.40;48.40;;;;;;5009687;28;37121;-87
2021/01/03 12:12:22;;;;;;;16.40;10.57;;;5.40;48.80;;;;;;5026768;28;38485;-85
2021/01/03 12:14:55;;;;;;;14.87;10.80;;;5.20;48.80;;;;;;5025331;28;38796;-86
2021/01/03 12:17:23;;;;;;;16.17;10.50;;;5.30;48.80;;;;;;5015476;28;41181;-86
2021/01/03 12:19:53;;;;;;;13.97;10.80;;;5.30;49.10;;;;;;5007272;28;39246;-85
2021/01/03 12:22:20;;;;;;;15.63;10.10;;;5.40;49.10;;;;;;5016979;28;38715;-86
2021/01/03 12:25:03;;;;;;;14.87;10.87;;;5.50;48.90;;;;;;5012083;28;37686;-86
2021/01/03 12:27:31;;;;;;;14.63;10.60;;;5.50;48.60;;;;;;4993166;28;38308;-86
2021/01/03 12:29:58;;;;;;;14.83;11.03;;;5.60;48.70;;;;;;5010186;28;40191;-85
2021/01/03 12:32:28;;;;;;;15.17;10.70;;;5.70;48.50;;;;;;5006196;28;37311;-85
2021/01/03 12:34:57;;;;;;;15.70;10.73;;;5.70;48.40;;;;;;4999695;28;36278;-85
2021/01/03 12:37:30;;;;;;;14.93;11.17;;;5.80;48.40;;;;;;5008805;28;39894;-85
2021/01/03 12:39:57;;;;;;;14.60;10.07;;;5.80;48.10;;;;;;5005313;28;39057;-86
2021/01/03 12:42:26;;;;;;;13.77;9.13;;;5.90;48.00;;;;;;4999229;28;38772;-86
2021/01/03 12:45:00;;;;;;;13.80;10.50;;;5.90;47.70;;;;;;5009119;28;38542;-86
2021/01/03 12:47:31;;;;;;;12.60;9.50;;;5.90;47.50;;;;;;4991667;28;39967;-86
2021/01/03 12:50:00;;;;;;;13.93;9.70;;;5.90;47.40;;;;;;5009952;28;39373;-86
2021/01/03 12:52:36;;;;;;;13.37;10.43;;;5.80;47.40;;;;;;4992982;28;37085;-86
2021/01/03 12:55:05;;;;;;;13.23;9.87;;;5.80;47.40;;;;;;5023514;28;37086;-86
2021/01/03 12:57:35;;;;;;;14.33;10.10;;;5.80;47.60;;;;;;5009618;28;39285;-86
2021/01/03 13:00:02;;;;;;;14.90;11.30;;;5.70;47.30;;;;;;5011908;28;39880;-86
2021/01/03 13:02:32;;;;;;;13.07;9.57;;;5.60;47.60;;;;;;4997137;28;38771;-86
2021/01/03 13:04:59;;;;;;;13.30;10.60;;;5.50;47.90;;;;;;4979004;28;36471;-86
2021/01/03 13:07:26;;;;;;;15.20;11.20;;;5.50;48.10;;;;;;5013241;28;39936;-87